Time;durP1;ratioP1;P1;durP2;ratioP2;P2;SDS_P1;SDS_P2;PMS_P1;PMS_P2;Temp;Humidity;BMP_temperature;BMP_pressure;BME280_temperature;BME280_humidity;BME280_pressure;Samples;Min_cycle;Max_cycle;Signal;HPM_P1;HPM_P2
2021/12/29 00:02:44;;;;;;;229.33;99.17;;;-3.20;99.90;;;;;;10285974;28;20066;-82
2021/12/29 00:07:45;;;;;;;233.73;98.73;;;-3.10;99.90;;;;;;10264672;28;20376;-83
2021/12/29 00:12:52;;;;;;;213.27;88.50;;;-3.10;99.90;;;;;;10265626;28;20094;-82
2021/12/29 00:17:54;;;;;;;204.63;87.83;;;-3.10;99.90;;;;;;10283402;28;20049;-86
2021/12/29 00:23:00;;;;;;;189.57;84.47;;;-3.00;99.90;;;;;;10286979;28;20034;-83
2021/12/29 00:28:01;;;;;;;237.10;98.72;;;-3.10;99.90;;;;;;10278428;28;20286;-86
2021/12/29 00:33:02;;;;;;;221.37;91.00;;;-3.10;99.90;;;;;;10273793;28;20038;-86
2021/12/29 00:38:03;;;;;;;205.40;88.70;;;-3.10;99.90;;;;;;10278553;28;20419;-84
2021/12/29 00:43:08;;;;;;;219.30;92.50;;;-3.10;99.90;;;;;;10286410;28;20051;-83
2021/12/29 00:48:12;;;;;;;227.07;89.17;;;-3.20;99.90;;;;;;10263343;28;20039;-86
2021/12/29 00:53:13;;;;;;;222.60;87.77;;;-3.30;99.90;;;;;;10285048;28;20066;-82
2021/12/29 00:58:13;;;;;;;251.40;98.73;;;-3.50;99.90;;;;;;10267792;28;20035;-81
2021/12/29 01:03:14;;;;;;;397.93;132.30;;;-3.50;99.90;;;;;;10277002;28;20038;-82
2021/12/29 01:08:15;;;;;;;279.47;101.87;;;-3.40;99.90;;;;;;10275296;28;20042;-85
2021/12/29 01:13:19;;;;;;;181.70;74.57;;;-3.30;99.90;;;;;;10294396;28;20442;-83
2021/12/29 01:18:20;;;;;;;167.93;70.50;;;-3.20;99.90;;;;;;10270769;28;20035;-82
2021/12/29 01:23:22;;;;;;;141.00;57.63;;;-3.10;99.90;;;;;;10273902;28;20031;-83
2021/12/29 01:28:23;;;;;;;149.57;61.60;;;-3.00;99.90;;;;;;10257763;28;20106;-82
2021/12/29 01:33:23;;;;;;;140.40;61.33;;;-2.90;99.90;;;;;;10259190;28;20028;-82
2021/12/29 01:38:24;;;;;;;133.07;58.07;;;-2.80;99.90;;;;;;10281676;28;20034;-83
2021/12/29 01:43:25;;;;;;;176.90;75.27;;;-2.70;99.90;;;;;;10279376;28;20049;-82
2021/12/29 01:48:26;;;;;;;135.70;57.63;;;-2.70;99.90;;;;;;10227534;29;20044;-83
2021/12/29 01:53:30;;;;;;;140.27;57.73;;;-2.60;99.90;;;;;;10244596;29;20131;-87
2021/12/29 01:58:31;;;;;;;142.73;58.80;;;-2.60;99.90;;;;;;10228194;29;20121;-83
2021/12/29 02:03:32;;;;;;;129.67;57.23;;;-2.50;99.90;;;;;;10245631;29;20023;-82
2021/12/29 02:08:34;;;;;;;134.37;58.93;;;-2.50;99.90;;;;;;10243633;29;20039;-86
2021/12/29 02:13:35;;;;;;;144.93;60.37;;;-2.50;99.90;;;;;;10239109;29;20035;-83
2021/12/29 02:18:38;;;;;;;136.63;57.83;;;-2.50;99.90;;;;;;10251056;29;20037;-82
2021/12/29 02:23:55;;;;;;;133.87;59.10;;;-2.40;99.90;;;;;;10231510;29;20051;-82
2021/12/29 02:28:56;;;;;;;140.70;63.10;;;-2.40;99.90;;;;;;10248282;29;20050;-82
2021/12/29 02:33:57;;;;;;;133.73;55.37;;;-2.40;99.90;;;;;;10238202;29;20039;-83
2021/12/29 02:38:58;;;;;;;126.47;51.73;;;-2.40;99.90;;;;;;10250362;29;20034;-82
2021/12/29 02:44:01;;;;;;;143.93;58.20;;;-2.40;99.90;;;;;;10249793;28;20066;-83
2021/12/29 02:49:02;;;;;;;149.83;64.03;;;-2.40;99.90;;;;;;10285883;28;20073;-86
2021/12/29 02:54:04;;;;;;;132.03;56.83;;;-2.30;99.90;;;;;;10271777;28;20070;-84
2021/12/29 02:59:05;;;;;;;140.90;57.73;;;-2.30;99.90;;;;;;10273054;28;20034;-82
2021/12/29 03:04:06;;;;;;;148.10;60.17;;;-2.30;99.90;;;;;;10273379;28;20030;-83
2021/12/29 03:09:11;;;;;;;154.47;66.40;;;-2.30;99.90;;;;;;10272907;28;20039;-84
2021/12/29 03:14:14;;;;;;;149.03;63.03;;;-2.20;99.90;;;;;;10288898;28;20129;-85
2021/12/29 03:19:15;;;;;;;168.47;67.00;;;-2.20;99.90;;;;;;10273512;28;20102;-83
2021/12/29 03:24:18;;;;;;;164.97;68.73;;;-2.20;99.90;;;;;;10283825;28;20049;-85
2021/12/29 03:29:19;;;;;;;173.90;74.20;;;-2.10;99.90;;;;;;10249728;29;20070;-84
2021/12/29 03:34:20;;;;;;;185.07;80.57;;;-2.10;99.90;;;;;;10283319;28;20062;-85
2021/12/29 03:39:23;;;;;;;171.93;74.77;;;-2.10;99.90;;;;;;10266184;28;20031;-83
2021/12/29 03:44:24;;;;;;;182.77;78.00;;;-2.10;99.90;;;;;;10271321;28;20057;-84
2021/12/29 03:49:24;;;;;;;161.17;69.47;;;-2.10;99.90;;;;;;10288275;28;20049;-89
2021/12/29 03:54:25;;;;;;;189.73;90.20;;;-2.00;99.90;;;;;;10254693;28;20041;-86
2021/12/29 03:59:27;;;;;;;174.40;78.67;;;-2.00;99.90;;;;;;10288856;28;20050;-85
2021/12/29 04:04:27;;;;;;;163.20;74.13;;;-2.00;99.90;;;;;;10275597;28;20034;-86
2021/12/29 04:09:28;;;;;;;164.03;73.63;;;-2.00;99.90;;;;;;10266206;28;20035;-83
2021/12/29 04:14:29;;;;;;;160.97;71.33;;;-1.90;99.90;;;;;;10277504;28;20043;-85
2021/12/29 04:19:40;;;;;;;161.70;71.80;;;-2.00;99.90;;;;;;10266425;28;20023;-84
2021/12/29 04:24:40;;;;;;;157.43;70.30;;;-1.90;99.90;;;;;;10268676;28;20034;-85
2021/12/29 04:29:42;;;;;;;160.07;69.17;;;-1.90;99.90;;;;;;10287558;28;20379;-85
2021/12/29 04:34:42;;;;;;;146.17;66.93;;;-1.90;99.90;;;;;;10284613;28;20042;-89
2021/12/29 04:39:43;;;;;;;151.03;69.13;;;-1.90;99.90;;;;;;10285342;28;20406;-88
2021/12/29 04:44:44;;;;;;;155.50;71.17;;;-1.90;99.90;;;;;;10248931;28;20061;-88
2021/12/29 04:49:45;;;;;;;237.80;116.00;;;-1.90;99.90;;;;;;10253417;28;20074;-84
2021/12/29 04:54:46;;;;;;;179.53;88.63;;;-1.80;99.90;;;;;;10280032;28;20051;-86
2021/12/29 04:59:47;;;;;;;152.07;75.70;;;-1.80;99.90;;;;;;10256422;28;20029;-85
2021/12/29 05:04:57;;;;;;;159.07;75.73;;;-1.80;99.90;;;;;;10264050;28;20081;-89
2021/12/29 05:09:59;;;;;;;152.13;70.27;;;-1.80;99.90;;;;;;10250039;28;20031;-85
2021/12/29 05:15:00;;;;;;;150.57;71.47;;;-1.80;99.90;;;;;;10247739;28;20041;-82
2021/12/29 05:20:00;;;;;;;155.40;72.47;;;-1.70;99.90;;;;;;10241284;28;20027;-87
2021/12/29 05:25:01;;;;;;;143.90;68.00;;;-1.70;99.90;;;;;;10257550;28;20487;-85
2021/12/29 05:30:03;;;;;;;146.20;67.83;;;-1.70;99.90;;;;;;10265834;28;20034;-86
2021/12/29 05:35:05;;;;;;;148.27;70.97;;;-1.70;99.90;;;;;;10275793;28;20042;-87
2021/12/29 05:40:08;;;;;;;153.30;71.90;;;-1.70;99.90;;;;;;10274098;28;20039;-84
2021/12/29 05:45:11;;;;;;;195.20;92.17;;;-1.70;99.90;;;;;;10290804;28;20483;-86
2021/12/29 05:50:15;;;;;;;170.37;79.23;;;-1.60;99.90;;;;;;10293315;28;20599;-85
2021/12/29 05:55:16;;;;;;;161.40;78.17;;;-1.60;99.90;;;;;;10292925;28;20495;-86
2021/12/29 06:00:19;;;;;;;149.47;73.20;;;-1.60;99.90;;;;;;10292790;28;20027;-84
2021/12/29 06:05:20;;;;;;;169.93;79.17;;;-1.60;99.90;;;;;;10292509;28;20034;-84
2021/12/29 06:10:21;;;;;;;157.93;74.23;;;-1.60;99.90;;;;;;10275531;28;20054;-84
2021/12/29 06:15:22;;;;;;;161.10;76.83;;;-1.60;99.90;;;;;;10274921;28;20057;-84
2021/12/29 06:20:23;;;;;;;170.93;81.53;;;-1.60;99.90;;;;;;10292505;28;20438;-85
2021/12/29 06:25:28;;;;;;;179.70;90.00;;;-1.50;99.90;;;;;;10274878;28;20046;-84
2021/12/29 06:30:29;;;;;;;199.38;90.05;;;-1.50;99.90;;;;;;10274587;28;20038;-86
2021/12/29 06:35:30;;;;;;;189.93;85.73;;;-1.50;99.90;;;;;;10273920;28;20031;-84
2021/12/29 06:40:31;;;;;;;173.97;83.27;;;-1.50;99.90;;;;;;10291477;28;20043;-84
2021/12/29 06:45:31;;;;;;;173.97;84.23;;;-1.50;99.90;;;;;;10273515;28;20089;-85
2021/12/29 06:50:33;;;;;;;185.63;89.63;;;-1.50;99.90;;;;;;10291166;28;20039;-85
2021/12/29 06:55:33;;;;;;;190.90;92.30;;;-1.50;99.90;;;;;;10273087;28;20082;-84
2021/12/29 07:00:34;;;;;;;177.20;84.20;;;-1.40;99.90;;;;;;10290796;28;20030;-85
2021/12/29 07:05:35;;;;;;;194.87;90.40;;;-1.40;99.90;;;;;;10291365;28;20062;-84
2021/12/29 07:10:35;;;;;;;201.07;97.27;;;-1.40;99.90;;;;;;10273820;28;20034;-85
2021/12/29 07:15:36;;;;;;;287.30;138.77;;;-1.40;99.90;;;;;;10272354;28;20097;-86
2021/12/29 07:20:38;;;;;;;664.83;326.73;;;-1.30;99.90;;;;;;10290383;28;20023;-85
2021/12/29 07:25:39;;;;;;;955.70;502.03;;;-1.30;99.90;;;;;;10289972;28;20027;-86
2021/12/29 07:30:40;;;;;;;434.53;253.50;;;-1.20;99.90;;;;;;10272105;28;20053;-84
2021/12/29 07:35:41;;;;;;;456.70;275.50;;;-1.20;99.90;;;;;;10272241;28;20035;-84
2021/12/29 07:40:42;;;;;;;367.37;211.77;;;-1.20;99.90;;;;;;10288113;28;20039;-83
2021/12/29 07:45:43;;;;;;;251.93;120.87;;;-1.20;99.90;;;;;;10288383;28;20483;-84
2021/12/29 07:50:46;;;;;;;241.17;111.33;;;-1.10;99.90;;;;;;10286331;28;20110;-82
2021/12/29 07:55:47;;;;;;;263.57;121.87;;;-1.00;99.90;;;;;;10265908;28;20066;-84
2021/12/29 08:00:48;;;;;;;357.07;192.43;;;-1.00;99.90;;;;;;10270531;28;20027;-86
2021/12/29 08:05:49;;;;;;;539.57;312.33;;;-0.90;99.90;;;;;;10287272;28;20459;-85
2021/12/29 08:10:50;;;;;;;432.33;222.17;;;-0.90;99.90;;;;;;10287671;28;20495;-86
2021/12/29 08:15:51;;;;;;;408.87;219.10;;;-0.80;99.90;;;;;;10269816;28;20066;-85
2021/12/29 08:20:52;;;;;;;375.10;181.23;;;-0.70;99.90;;;;;;10268798;28;20038;-84
2021/12/29 08:25:53;;;;;;;508.37;255.83;;;-0.60;99.90;;;;;;10269450;28;20053;-84
2021/12/29 08:30:54;;;;;;;681.93;382.87;;;-0.50;99.90;;;;;;10269278;28;20031;-86
2021/12/29 08:35:55;;;;;;;833.83;471.63;;;-0.50;99.90;;;;;;10269504;28;20077;-85
2021/12/29 08:40:56;;;;;;;780.30;436.97;;;-0.40;99.90;;;;;;10286821;28;20062;-87
2021/12/29 08:45:56;;;;;;;328.13;168.50;;;-0.30;99.90;;;;;;10268663;28;20068;-83
2021/12/29 08:50:59;;;;;;;283.87;136.53;;;-0.30;99.90;;;;;;10269083;28;20026;-84
2021/12/29 08:55:59;;;;;;;300.10;138.77;;;-0.20;99.90;;;;;;10285620;28;20043;-85
2021/12/29 09:01:00;;;;;;;302.57;144.73;;;-0.20;99.90;;;;;;10268493;28;20113;-83
2021/12/29 09:06:02;;;;;;;345.97;144.13;;;-0.10;99.90;;;;;;10285568;28;20026;-84
2021/12/29 09:11:04;;;;;;;287.50;129.60;;;0.00;99.90;;;;;;10284868;28;20038;-86
2021/12/29 09:16:06;;;;;;;242.93;118.77;;;0.10;99.90;;;;;;10284386;28;20522;-85
2021/12/29 09:21:15;;;;;;;264.60;125.57;;;0.10;99.90;;;;;;10273570;28;20038;-84
2021/12/29 09:32:17;;;;;;;296.63;153.07;;;0.20;99.90;;;;;;10287660;28;20034;-87
2021/12/29 09:37:18;;;;;;;267.47;129.27;;;0.20;99.90;;;;;;10285175;28;21234;-84
2021/12/29 09:42:18;;;;;;;284.50;135.43;;;0.30;99.90;;;;;;10283573;28;20041;-85
2021/12/29 09:47:19;;;;;;;263.30;130.77;;;0.40;99.90;;;;;;10275267;28;20468;-84
2021/12/29 09:52:20;;;;;;;243.83;118.60;;;0.50;99.90;;;;;;10292332;28;20042;-84
2021/12/29 09:57:21;;;;;;;239.83;117.03;;;0.70;99.90;;;;;;10292239;28;20049;-85
2021/12/29 10:02:27;;;;;;;329.33;163.57;;;0.70;99.90;;;;;;10273238;28;20038;-83
2021/12/29 10:07:28;;;;;;;449.33;219.27;;;0.80;99.90;;;;;;10274221;28;20161;-84
2021/12/29 10:12:29;;;;;;;446.93;233.70;;;0.80;99.90;;;;;;10274280;28;20050;-85
2021/12/29 10:17:33;;;;;;;464.37;241.67;;;0.90;99.90;;;;;;10291719;28;20501;-84
2021/12/29 10:22:35;;;;;;;377.63;177.97;;;0.90;99.90;;;;;;10274169;28;20065;-84
2021/12/29 10:27:45;;;;;;;469.73;231.17;;;0.90;99.90;;;;;;10272544;28;20035;-85
2021/12/29 10:32:46;;;;;;;386.17;208.60;;;1.00;99.90;;;;;;10243171;28;20651;-86
2021/12/29 10:37:47;;;;;;;335.97;169.03;;;1.00;99.90;;;;;;10244793;29;20452;-85
2021/12/29 10:42:59;;;;;;;378.47;199.90;;;1.00;99.90;;;;;;10244520;29;20059;-84
2021/12/29 10:48:02;;;;;;;343.30;176.10;;;1.10;99.90;;;;;;10244756;29;20487;-84
2021/12/29 10:53:03;;;;;;;472.20;255.10;;;1.10;99.90;;;;;;10244463;29;20097;-85
2021/12/29 10:58:11;;;;;;;322.67;159.30;;;1.20;99.90;;;;;;10244839;29;20086;-85
2021/12/29 11:03:21;;;;;;;293.17;149.57;;;1.20;99.90;;;;;;10273356;28;20038;-85
2021/12/29 11:08:22;;;;;;;303.33;146.17;;;1.20;99.90;;;;;;10267314;28;20031;-85
2021/12/29 11:13:27;;;;;;;283.13;140.97;;;1.30;99.90;;;;;;10287212;28;20042;-84
2021/12/29 11:18:47;;;;;;;350.37;167.07;;;1.30;99.90;;;;;;10289709;28;20055;-85
2021/12/29 11:23:48;;;;;;;287.90;137.07;;;1.40;99.90;;;;;;10289235;28;20114;-85
2021/12/29 11:28:52;;;;;;;303.00;151.50;;;1.40;99.90;;;;;;10286428;28;20038;-85
2021/12/29 11:33:53;;;;;;;533.27;303.33;;;1.60;99.90;;;;;;10278132;28;20042;-84
2021/12/29 11:38:55;;;;;;;386.40;186.37;;;1.70;99.90;;;;;;10278748;28;20549;-83
2021/12/29 11:43:56;;;;;;;262.40;126.10;;;1.70;99.90;;;;;;10272610;28;20046;-84
2021/12/29 11:48:58;;;;;;;394.10;186.13;;;1.70;99.90;;;;;;10288617;28;20031;-84
2021/12/29 11:54:05;;;;;;;437.23;238.50;;;1.80;99.90;;;;;;10288862;28;20042;-84
2021/12/29 11:59:05;;;;;;;340.67;183.13;;;1.90;99.90;;;;;;10288392;28;20079;-82
2021/12/29 12:04:10;;;;;;;306.47;165.87;;;2.00;99.90;;;;;;10271015;28;20117;-83
2021/12/29 12:09:25;;;;;;;381.27;185.87;;;2.00;99.90;;;;;;10288105;28;20034;-83
2021/12/29 12:14:27;;;;;;;376.27;203.10;;;2.10;99.90;;;;;;10288291;28;20514;-85
2021/12/29 12:19:30;;;;;;;340.90;182.30;;;2.20;99.90;;;;;;10287834;28;20114;-83
2021/12/29 12:24:31;;;;;;;262.40;131.17;;;2.30;99.90;;;;;;10287026;28;20131;-84
2021/12/29 12:29:35;;;;;;;258.90;133.77;;;2.30;99.90;;;;;;10287454;28;20029;-83
2021/12/29 12:34:57;;;;;;;247.00;134.90;;;2.50;99.90;;;;;;10287100;28;20117;-85
2021/12/29 12:40:08;;;;;;;272.40;145.07;;;2.50;99.90;;;;;;10287756;28;20057;-85
2021/12/29 12:45:19;;;;;;;270.03;138.23;;;2.50;99.90;;;;;;10269638;28;20428;-83
2021/12/29 12:50:28;;;;;;;267.50;144.17;;;2.50;99.90;;;;;;10286358;28;20034;-85
2021/12/29 12:55:31;;;;;;;242.67;123.40;;;2.50;99.90;;;;;;10286516;28;20546;-84
2021/12/29 13:00:31;;;;;;;249.87;124.87;;;2.40;99.90;;;;;;10287091;28;20039;-85
2021/12/29 13:05:40;;;;;;;234.43;128.87;;;2.50;99.90;;;;;;10286912;28;20034;-83
2021/12/29 13:10:50;;;;;;;228.80;122.37;;;2.60;99.90;;;;;;10286848;28;20711;-83
2021/12/29 13:15:54;;;;;;;247.47;129.73;;;2.50;99.90;;;;;;10286667;28;20125;-83
2021/12/29 13:21:08;;;;;;;260.90;144.10;;;2.50;99.90;;;;;;10285626;28;20506;-83
2021/12/29 13:26:09;;;;;;;283.50;151.97;;;2.40;99.90;;;;;;10286111;28;20031;-83
2021/12/29 13:31:14;;;;;;;262.73;138.10;;;2.50;99.90;;;;;;10285830;28;20027;-84
2021/12/29 13:36:17;;;;;;;342.80;184.50;;;2.50;99.90;;;;;;10286249;28;20200;-84
2021/12/29 13:41:24;;;;;;;343.70;200.83;;;2.60;99.90;;;;;;10270117;28;20038;-83
2021/12/29 13:46:37;;;;;;;260.10;140.33;;;2.80;99.90;;;;;;10278409;28;20062;-83
2021/12/29 13:51:44;;;;;;;259.97;132.70;;;2.90;99.90;;;;;;10282653;28;20027;-85
2021/12/29 13:56:52;;;;;;;282.13;147.47;;;2.90;99.90;;;;;;10283058;28;20070;-85
2021/12/29 14:02:01;;;;;;;278.70;145.07;;;2.70;99.90;;;;;;10282075;28;20035;-83
2021/12/29 14:07:05;;;;;;;290.87;150.17;;;2.50;99.90;;;;;;10283624;28;20038;-86
2021/12/29 14:12:11;;;;;;;255.90;133.67;;;2.40;99.90;;;;;;10285634;28;20018;-84
2021/12/29 14:17:23;;;;;;;425.48;199.45;;;2.30;99.90;;;;;;10285767;28;20523;-82
2021/12/29 14:22:29;;;;;;;412.03;189.90;;;2.20;99.90;;;;;;10273301;28;20031;-84
2021/12/29 14:27:33;;;;;;;622.73;344.30;;;2.20;99.90;;;;;;10290060;28;20025;-87
2021/12/29 14:32:34;;;;;;;480.50;243.50;;;2.20;99.90;;;;;;10291560;28;20117;-85
2021/12/29 14:37:34;;;;;;;507.13;249.00;;;2.20;99.90;;;;;;10266075;28;20039;-84
2021/12/29 14:42:40;;;;;;;537.57;292.50;;;2.10;99.90;;;;;;10271217;28;20046;-86
2021/12/29 14:47:46;;;;;;;621.25;326.92;;;2.10;99.90;;;;;;10287725;28;20035;-83
2021/12/29 14:52:48;;;;;;;;;;;2.10;99.90;;;;;;10290403;28;20023;-83
2021/12/29 14:57:50;;;;;;;447.73;225.80;;;2.10;99.90;;;;;;10290126;28;19925;-84
2021/12/29 15:02:58;;;;;;;447.63;220.97;;;2.10;99.90;;;;;;10286500;28;20552;-83
2021/12/29 15:07:58;;;;;;;340.53;155.40;;;2.00;99.90;;;;;;10288085;28;20030;-85
2021/12/29 15:13:01;;;;;;;376.60;162.30;;;2.00;99.90;;;;;;10284965;28;20046;-85
2021/12/29 15:18:11;;;;;;;294.63;132.03;;;2.00;99.90;;;;;;10286418;28;20403;-84
2021/12/29 15:23:13;;;;;;;280.80;129.83;;;2.00;99.90;;;;;;10289012;28;20117;-86
2021/12/29 15:28:15;;;;;;;336.60;149.27;;;1.90;99.90;;;;;;10287975;28;20042;-88
2021/12/29 15:33:17;;;;;;;263.83;125.47;;;1.90;99.90;;;;;;10288667;28;20479;-84
2021/12/29 15:38:18;;;;;;;245.57;121.43;;;1.90;99.90;;;;;;10287375;28;20038;-84
2021/12/29 15:43:19;;;;;;;339.43;157.13;;;2.00;99.90;;;;;;10270393;28;20406;-84
2021/12/29 15:48:19;;;;;;;290.83;134.80;;;2.00;99.90;;;;;;10288274;28;20037;-84
2021/12/29 15:53:20;;;;;;;283.00;138.73;;;2.00;99.90;;;;;;10278479;28;20027;-84
2021/12/29 15:58:21;;;;;;;394.37;197.83;;;2.00;99.90;;;;;;10288380;28;20129;-85
2021/12/29 16:03:23;;;;;;;611.43;289.90;;;2.00;99.90;;;;;;10262965;28;20573;-86
2021/12/29 16:08:24;;;;;;;318.57;152.43;;;2.00;99.90;;;;;;10287379;28;20105;-84
2021/12/29 16:13:24;;;;;;;269.27;131.00;;;2.00;99.90;;;;;;10287582;28;20038;-83
2021/12/29 16:18:25;;;;;;;331.07;147.23;;;2.00;99.90;;;;;;10268820;28;20034;-84
2021/12/29 16:23:26;;;;;;;394.10;193.07;;;2.00;99.90;;;;;;10280148;28;20035;-85
2021/12/29 16:28:27;;;;;;;263.17;125.53;;;2.00;99.90;;;;;;10282986;28;20034;-84
2021/12/29 16:33:27;;;;;;;352.27;180.13;;;2.00;99.90;;;;;;10286277;28;20082;-84
2021/12/29 16:38:28;;;;;;;327.37;169.23;;;2.00;99.90;;;;;;10285739;28;20038;-83
2021/12/29 16:43:31;;;;;;;267.63;126.70;;;2.00;99.90;;;;;;10285458;28;20430;-84
2021/12/29 16:48:35;;;;;;;321.87;156.27;;;2.00;99.90;;;;;;10286125;28;20390;-84
2021/12/29 16:53:36;;;;;;;339.20;162.87;;;1.90;99.90;;;;;;10284159;28;20035;-82
2021/12/29 16:58:38;;;;;;;281.57;127.13;;;1.90;99.90;;;;;;10286242;28;20521;-84
2021/12/29 17:03:39;;;;;;;232.60;109.80;;;1.90;99.90;;;;;;10282265;28;20046;-86
2021/12/29 17:08:40;;;;;;;514.87;223.63;;;1.90;99.90;;;;;;10268878;28;20050;-85
2021/12/29 17:13:40;;;;;;;480.63;203.73;;;1.90;99.90;;;;;;10282145;28;20417;-87
2021/12/29 17:18:41;;;;;;;520.00;236.73;;;1.90;99.90;;;;;;10285703;28;20611;-83
2021/12/29 17:23:42;;;;;;;294.93;139.67;;;2.00;99.90;;;;;;10284878;28;20440;-83
2021/12/29 17:28:43;;;;;;;300.87;131.90;;;2.00;99.90;;;;;;10282020;28;20118;-83
2021/12/29 17:33:44;;;;;;;433.60;185.20;;;2.00;99.90;;;;;;10279014;28;20033;-85
2021/12/29 17:38:45;;;;;;;303.87;146.30;;;2.00;99.90;;;;;;10266165;28;20049;-83
2021/12/29 17:43:46;;;;;;;288.10;145.47;;;2.00;99.90;;;;;;10272721;28;20054;-83
2021/12/29 17:48:47;;;;;;;512.80;265.17;;;2.00;99.90;;;;;;10270388;28;20031;-82
2021/12/29 17:53:49;;;;;;;366.90;178.43;;;2.00;99.90;;;;;;10282702;28;20030;-85
2021/12/29 17:58:50;;;;;;;289.67;141.40;;;2.00;99.90;;;;;;10289268;28;20042;-83
2021/12/29 18:03:51;;;;;;;268.27;128.47;;;2.00;99.90;;;;;;10287264;28;20027;-82
2021/12/29 18:08:52;;;;;;;276.30;129.47;;;2.00;99.90;;;;;;10290976;28;20058;-84
2021/12/29 18:13:52;;;;;;;973.00;391.00;;;2.00;99.90;;;;;;10290691;28;20077;-88
2021/12/29 18:18:53;;;;;;;558.93;281.23;;;2.00;99.90;;;;;;10282922;28;20026;-83
2021/12/29 18:23:54;;;;;;;686.80;366.30;;;2.00;99.90;;;;;;10291236;28;20046;-82
2021/12/29 18:28:54;;;;;;;701.70;363.43;;;2.00;99.90;;;;;;10286231;28;20034;-83
2021/12/29 18:33:58;;;;;;;759.43;405.90;;;2.00;99.90;;;;;;10288157;28;20039;-83
2021/12/29 18:38:59;;;;;;;726.23;391.00;;;2.00;99.90;;;;;;10288301;28;20026;-82
2021/12/29 18:44:00;;;;;;;588.50;295.77;;;2.00;99.90;;;;;;10272667;28;20073;-82
2021/12/29 18:49:01;;;;;;;495.33;240.60;;;2.00;99.90;;;;;;10289383;28;20031;-82
2021/12/29 18:54:02;;;;;;;463.57;225.40;;;2.00;99.90;;;;;;10289760;28;20498;-84
2021/12/29 18:59:03;;;;;;;390.43;189.87;;;2.00;99.90;;;;;;10282092;28;20526;-82
2021/12/29 19:04:04;;;;;;;401.63;195.97;;;2.00;99.90;;;;;;10287149;28;20046;-81
2021/12/29 19:09:05;;;;;;;349.20;162.23;;;2.00;99.90;;;;;;10277945;28;20065;-85
2021/12/29 19:14:05;;;;;;;581.13;276.33;;;2.00;99.90;;;;;;10289645;28;20109;-81
2021/12/29 19:19:06;;;;;;;579.73;263.57;;;2.00;99.90;;;;;;10282299;28;20031;-83
2021/12/29 19:24:07;;;;;;;649.00;299.40;;;2.00;99.90;;;;;;10284875;28;20035;-82
2021/12/29 19:29:08;;;;;;;330.87;155.20;;;2.00;99.90;;;;;;10284902;28;20096;-81
2021/12/29 19:34:09;;;;;;;319.30;147.40;;;2.00;99.90;;;;;;10262231;28;20532;-84
2021/12/29 19:39:10;;;;;;;345.60;161.90;;;2.00;99.90;;;;;;10266572;28;20015;-82
2021/12/29 19:44:10;;;;;;;359.60;172.43;;;2.00;99.90;;;;;;10275327;28;20086;-83
2021/12/29 19:49:12;;;;;;;290.63;139.67;;;2.00;99.90;;;;;;10280834;28;20038;-81
2021/12/29 19:54:13;;;;;;;277.50;132.03;;;2.00;99.90;;;;;;10270327;28;20125;-83
2021/12/29 19:59:14;;;;;;;325.83;150.60;;;2.00;99.90;;;;;;10256501;28;20363;-81
2021/12/29 20:04:15;;;;;;;367.50;168.50;;;1.90;99.90;;;;;;10287580;28;20034;-82
2021/12/29 20:09:16;;;;;;;372.27;170.07;;;1.90;99.90;;;;;;10275415;28;20031;-83
2021/12/29 20:14:17;;;;;;;434.73;211.53;;;1.90;99.90;;;;;;10287992;28;20023;-82
2021/12/29 20:19:18;;;;;;;405.13;193.60;;;1.80;99.90;;;;;;10285338;28;20077;-81
2021/12/29 20:24:21;;;;;;;379.93;171.30;;;1.70;99.90;;;;;;10285333;28;20578;-82
2021/12/29 20:29:23;;;;;;;422.03;190.17;;;1.70;99.90;;;;;;10262556;28;20035;-81
2021/12/29 20:34:24;;;;;;;595.53;273.17;;;1.60;99.90;;;;;;10269543;28;20121;-82
2021/12/29 20:39:26;;;;;;;401.77;182.83;;;1.60;99.90;;;;;;10272898;28;20084;-81
2021/12/29 20:44:27;;;;;;;345.33;160.93;;;1.70;99.90;;;;;;10270020;28;20055;-83
2021/12/29 20:49:28;;;;;;;321.00;143.57;;;1.70;99.90;;;;;;10261611;28;20431;-83
2021/12/29 20:54:29;;;;;;;356.97;163.23;;;1.70;99.90;;;;;;10264268;28;20034;-83
2021/12/29 20:59:31;;;;;;;453.13;205.23;;;1.70;99.90;;;;;;10275086;28;20123;-82
2021/12/29 21:04:32;;;;;;;400.57;190.23;;;1.80;99.90;;;;;;10261881;28;20475;-83
2021/12/29 21:09:33;;;;;;;323.17;150.17;;;1.80;99.90;;;;;;10279424;28;20034;-83
2021/12/29 21:14:34;;;;;;;318.47;149.07;;;1.80;99.90;;;;;;10267591;28;20479;-82
2021/12/29 21:19:35;;;;;;;235.50;112.37;;;1.80;99.90;;;;;;10261056;28;20035;-83
2021/12/29 21:24:36;;;;;;;263.10;124.20;;;1.90;99.90;;;;;;10288739;28;20491;-82
2021/12/29 21:29:36;;;;;;;301.23;130.77;;;1.90;99.90;;;;;;10292036;28;20062;-83
2021/12/29 21:34:37;;;;;;;331.10;147.47;;;1.80;99.90;;;;;;10257078;28;20051;-83
2021/12/29 21:39:38;;;;;;;333.57;146.03;;;1.90;99.90;;;;;;10292290;28;20458;-82
2021/12/29 21:44:41;;;;;;;309.63;133.03;;;1.80;99.90;;;;;;10279659;28;20055;-82
2021/12/29 21:49:42;;;;;;;293.90;128.57;;;1.80;99.90;;;;;;10256769;28;20043;-82
2021/12/29 21:54:44;;;;;;;285.47;128.70;;;1.80;99.90;;;;;;10287283;28;20042;-83
2021/12/29 21:59:44;;;;;;;237.33;108.63;;;1.80;99.90;;;;;;10282885;28;20722;-82
2021/12/29 22:04:45;;;;;;;228.77;107.37;;;1.80;99.90;;;;;;10291503;28;20030;-82
2021/12/29 22:09:46;;;;;;;203.67;93.47;;;1.80;99.90;;;;;;10292604;28;20027;-83
2021/12/29 22:14:47;;;;;;;209.73;91.57;;;1.80;99.90;;;;;;10292837;28;20045;-83
2021/12/29 22:19:48;;;;;;;262.03;124.37;;;1.90;99.90;;;;;;10288504;28;20454;-83
2021/12/29 22:24:49;;;;;;;233.30;113.50;;;1.80;99.90;;;;;;10287915;28;20038;-82
2021/12/29 22:29:50;;;;;;;252.47;114.40;;;1.90;99.90;;;;;;10273075;28;20117;-82
2021/12/29 22:34:50;;;;;;;197.27;88.47;;;1.90;99.90;;;;;;10288034;28;20174;-83
2021/12/29 22:39:51;;;;;;;223.60;94.97;;;1.90;99.90;;;;;;10290419;28;20314;-82
2021/12/29 22:44:52;;;;;;;198.93;88.90;;;1.90;99.90;;;;;;10288247;28;20383;-83
2021/12/29 22:49:53;;;;;;;203.03;96.10;;;1.90;99.90;;;;;;10270944;28;20042;-83
2021/12/29 22:54:53;;;;;;;200.20;87.67;;;1.90;99.90;;;;;;10289016;28;20058;-81
2021/12/29 22:59:54;;;;;;;182.20;82.07;;;1.90;99.90;;;;;;10289616;28;20345;-82
2021/12/29 23:04:55;;;;;;;153.73;68.53;;;1.90;99.90;;;;;;10285240;28;20402;-82
2021/12/29 23:09:59;;;;;;;131.90;59.77;;;1.90;99.90;;;;;;10287941;28;20123;-82
2021/12/29 23:15:01;;;;;;;149.70;64.53;;;2.00;99.90;;;;;;10256431;28;20122;-82
2021/12/29 23:20:02;;;;;;;163.03;68.97;;;2.00;99.90;;;;;;10235298;29;20039;-83
2021/12/29 23:25:07;;;;;;;171.20;72.17;;;2.00;99.90;;;;;;10285366;28;20038;-82
2021/12/29 23:30:08;;;;;;;162.97;68.50;;;2.10;99.90;;;;;;10288686;28;20035;-83
2021/12/29 23:35:09;;;;;;;147.90;62.20;;;2.00;99.90;;;;;;10289283;28;20039;-82
2021/12/29 23:40:10;;;;;;;145.90;64.07;;;2.10;99.90;;;;;;10275323;28;20036;-82
2021/12/29 23:45:11;;;;;;;145.90;65.73;;;2.10;99.90;;;;;;10288289;28;20091;-82
2021/12/29 23:50:12;;;;;;;136.03;61.97;;;2.10;99.90;;;;;;10289457;28;20058;-82
2021/12/29 23:55:12;;;;;;;144.17;66.30;;;2.10;99.90;;;;;;10287878;28;20046;-82
